Startpagina
METAR-TAF:

METAR-TAF

Vliegvelden :

Yap, Yap Island, Micronesië

breedte: 09-29N, lengte: 138-05E, hoogte: 28 m

Actueel weer

Dit bericht is 42 minuten geleden gemaakt, om 03:50 UTC
Wind 7 kt uit het noordwesten
Temperatuur 30°C
Vochtigheid 75%
Druk 1009 hPa
Zicht: 19.3 km
Weinig wolken op 2000 ft
Verspreide wolken op 5000 ft
Gebroken wolken op 30000 ft

METAR: PTYA 230350Z 32007KT 12SM FEW020 SCT050 BKN300 30/25 A2981 RMK SLP095 T02970247

Tijdstip: 14:32 (04:32 UTC)

Verwachting

Dit bericht is 5 uur en het 10 minuten geleden gemaakt, om 23:22 UTC
Verwachting geldig van 23 om 00 UTC tot 23 om 24 UTC
Wind 7 kt uit het westnoordwesten
Zicht: 10 km
Verspreide wolken op 1600 ft
Verspreide wolken op 5000 ft
buien in de omgeving
Van 23 om 0700 UTC
Wind 5 kt uit variabele richting
Zicht: 10 km
Weinig wolken op 1600 ft
Verspreide wolken op 13000 ft
buien in de omgeving

TAF: PTYA 222322Z 2300/2324 30007KT P6SM VCSH SCT016 SCT050 FM230700 VRB05KT P6SM VCSH FEW016 SCT130

Waarnemingen en weersverwachtingen van meer dan 4000 vliegvelden (METAR en TAF).

De beschikbare stations zijn de gele en rode punten op de kaart.

Ga met uw muis naar het station om de naam te zien.

Klik dan om waarnemingen en weersverwachtingen te zien.

kaart wijzigen: klik op de groene knoppen met een zwart kruis om in te zoomen, op de groene knop met een streepje om uit te zoomen of op de groene pijlen voor aangrenzende kaarten.


METAR-TAF: